Time;durP1;ratioP1;P1;durP2;ratioP2;P2;SDS_P1;SDS_P2;PMS_P1;PMS_P2;Temp;Humidity;BMP_temperature;BMP_pressure;BME280_temperature;BME280_humidity;BME280_pressure;Samples;Min_cycle;Max_cycle;Signal;HPM_P1;HPM_P2
2023/08/20 00:01:11;;;;;;;19.17;3.75;;;;;;;;;;5006839;28;20022;-75
2023/08/20 00:03:37;;;;;;;13.15;3.40;;;;;;;;;;5006433;28;20124;-75
2023/08/20 00:06:03;;;;;;;23.10;4.82;;;;;;;;;;5003603;28;20042;-75
2023/08/20 00:08:30;;;;;;;16.60;3.08;;;;;;;;;;4992636;28;20041;-75
2023/08/20 00:10:56;;;;;;;11.25;2.58;;;;;;;;;;5006674;28;20233;-74
2023/08/20 00:13:22;;;;;;;14.75;3.63;;;;;;;;;;5008879;28;20030;-75
2023/08/20 00:15:50;;;;;;;17.88;3.50;;;;;;;;;;5007017;28;20049;-76
2023/08/20 00:18:16;;;;;;;16.88;3.45;;;;;;;;;;5008346;28;20110;-74
2023/08/20 00:20:45;;;;;;;15.20;3.08;;;;;;;;;;5005380;28;20049;-74
2023/08/20 00:23:11;;;;;;;15.93;3.25;;;;;;;;;;5004025;28;20064;-77
2023/08/20 00:25:38;;;;;;;11.15;3.50;;;;;;;;;;5015876;28;20062;-76
2023/08/20 00:28:04;;;;;;;15.18;3.35;;;;;;;;;;5015941;28;20038;-77
2023/08/20 00:30:30;;;;;;;12.27;3.03;;;;;;;;;;4994514;28;20049;-75
2023/08/20 00:32:56;;;;;;;14.95;3.08;;;;;;;;;;4987840;28;20112;-76
2023/08/20 00:35:22;;;;;;;13.63;3.88;;;;;;;;;;4988194;28;20038;-74
2023/08/20 00:37:49;;;;;;;14.43;3.20;;;;;;;;;;4990178;28;20117;-75
2023/08/20 00:40:15;;;;;;;12.07;3.00;;;;;;;;;;5007290;28;20052;-76
2023/08/20 00:42:41;;;;;;;16.52;3.30;;;;;;;;;;4981030;28;20046;-76
2023/08/20 00:45:08;;;;;;;16.52;3.22;;;;;;;;;;4986636;28;20113;-75
2023/08/20 00:47:35;;;;;;;12.20;2.60;;;;;;;;;;4987036;28;20030;-75
2023/08/20 00:50:05;;;;;;;14.55;3.10;;;;;;;;;;4966601;28;20113;-75
2023/08/20 00:52:32;;;;;;;21.10;3.33;;;;;;;;;;4985324;28;20058;-75
2023/08/20 00:55:17;;;;;;;14.32;2.70;;;;;;;;;;4968580;28;20031;-74
2023/08/20 00:57:43;;;;;;;16.33;3.35;;;;;;;;;;4989950;28;20033;-75
2023/08/20 01:00:10;;;;;;;19.10;3.38;;;;;;;;;;4953990;28;20047;-75
2023/08/20 01:02:40;;;;;;;16.92;3.15;;;;;;;;;;4987110;28;20102;-74
2023/08/20 01:05:10;;;;;;;15.43;3.75;;;;;;;;;;4988866;28;20030;-74
2023/08/20 01:07:41;;;;;;;14.27;2.88;;;;;;;;;;4979859;28;20441;-76
2023/08/20 01:10:10;;;;;;;25.00;4.35;;;;;;;;;;4976871;28;20033;-75
2023/08/20 01:12:36;;;;;;;17.75;2.85;;;;;;;;;;4970256;28;20027;-75
2023/08/20 01:15:03;;;;;;;21.88;3.92;;;;;;;;;;4982719;28;20327;-75
2023/08/20 01:17:29;;;;;;;15.93;3.13;;;;;;;;;;4983783;28;20066;-74
2023/08/20 01:19:55;;;;;;;12.85;3.03;;;;;;;;;;4980525;28;20519;-76
2023/08/20 01:22:45;;;;;;;13.65;3.00;;;;;;;;;;4989764;28;20018;-75
2023/08/20 01:25:23;;;;;;;14.93;2.80;;;;;;;;;;4962625;28;20038;-75
2023/08/20 01:27:59;;;;;;;17.23;3.47;;;;;;;;;;4967957;28;20145;-76
2023/08/20 01:30:27;;;;;;;14.85;2.65;;;;;;;;;;4983177;28;20026;-75
2023/08/20 01:32:54;;;;;;;12.65;2.67;;;;;;;;;;4986760;28;20034;-76
2023/08/20 01:35:20;;;;;;;13.20;2.85;;;;;;;;;;4984312;28;20165;-74
2023/08/20 01:37:46;;;;;;;11.85;2.97;;;;;;;;;;4984555;28;20030;-75
2023/08/20 01:40:12;;;;;;;16.55;3.40;;;;;;;;;;4952705;28;20038;-75
2023/08/20 01:42:40;;;;;;;14.68;3.30;;;;;;;;;;5003080;28;20038;-75
2023/08/20 01:45:07;;;;;;;15.80;3.03;;;;;;;;;;5017201;28;20052;-75
2023/08/20 01:47:34;;;;;;;17.77;3.13;;;;;;;;;;4981807;28;20061;-75
2023/08/20 01:50:00;;;;;;;14.95;2.92;;;;;;;;;;5009572;28;20026;-75
2023/08/20 01:52:26;;;;;;;15.52;3.47;;;;;;;;;;4987496;28;20106;-76
2023/08/20 01:54:53;;;;;;;18.48;3.45;;;;;;;;;;5003046;28;20041;-75
2023/08/20 01:57:19;;;;;;;15.70;4.07;;;;;;;;;;5001636;28;20050;-75
2023/08/20 01:59:47;;;;;;;10.63;3.25;;;;;;;;;;4987772;28;20121;-75
2023/08/20 02:02:13;;;;;;;12.98;3.60;;;;;;;;;;4983148;28;20026;-75
2023/08/20 02:04:39;;;;;;;15.52;3.40;;;;;;;;;;4990135;28;20033;-75
2023/08/20 02:07:05;;;;;;;17.17;3.25;;;;;;;;;;5004341;28;20030;-75
2023/08/20 02:09:32;;;;;;;10.93;3.17;;;;;;;;;;5004934;28;20052;-76
2023/08/20 02:11:58;;;;;;;16.20;3.90;;;;;;;;;;5003996;28;20038;-76
2023/08/20 02:14:27;;;;;;;16.42;3.72;;;;;;;;;;5005059;28;20041;-76
2023/08/20 02:16:53;;;;;;;15.07;4.25;;;;;;;;;;4985869;28;20062;-75
2023/08/20 02:19:19;;;;;;;13.98;3.97;;;;;;;;;;4990757;28;20034;-76
2023/08/20 02:21:45;;;;;;;19.30;5.20;;;;;;;;;;5007708;28;20057;-75
2023/08/20 02:24:12;;;;;;;13.38;3.85;;;;;;;;;;5011741;28;20046;-74
2023/08/20 02:26:38;;;;;;;22.65;5.13;;;;;;;;;;4999324;28;20009;-74
2023/08/20 02:29:05;;;;;;;18.02;4.68;;;;;;;;;;4992539;28;20079;-77
2023/08/20 02:31:31;;;;;;;20.40;4.38;;;;;;;;;;4990994;28;20128;-76
2023/08/20 02:33:57;;;;;;;20.23;4.18;;;;;;;;;;5005741;28;20106;-77
2023/08/20 02:36:23;;;;;;;21.00;5.45;;;;;;;;;;4985217;28;20034;-76
2023/08/20 02:38:50;;;;;;;18.77;5.13;;;;;;;;;;4988411;28;20057;-76
2023/08/20 02:41:16;;;;;;;17.70;4.70;;;;;;;;;;4964947;28;20041;-76
2023/08/20 02:43:42;;;;;;;15.77;5.03;;;;;;;;;;4987947;28;20030;-75
2023/08/20 02:46:08;;;;;;;18.42;5.75;;;;;;;;;;5003643;28;20052;-76
2023/08/20 02:48:36;;;;;;;15.00;5.75;;;;;;;;;;5005144;28;20065;-75
2023/08/20 02:51:02;;;;;;;16.98;6.38;;;;;;;;;;5003157;28;20508;-75
2023/08/20 02:53:28;;;;;;;17.83;6.70;;;;;;;;;;4986398;28;20121;-76
2023/08/20 02:55:56;;;;;;;27.05;7.10;;;;;;;;;;4987270;28;20038;-76
2023/08/20 02:58:22;;;;;;;23.90;7.00;;;;;;;;;;5003701;28;20064;-74
2023/08/20 03:00:49;;;;;;;25.65;6.82;;;;;;;;;;4993691;28;20018;-78
2023/08/20 03:03:15;;;;;;;27.63;7.88;;;;;;;;;;5002050;28;20084;-77
2023/08/20 03:05:43;;;;;;;25.40;7.40;;;;;;;;;;5002457;28;20029;-77
2023/08/20 03:08:10;;;;;;;28.55;7.78;;;;;;;;;;5005344;28;20096;-77
2023/08/20 03:10:36;;;;;;;22.60;6.80;;;;;;;;;;5012669;28;20380;-76
2023/08/20 03:13:02;;;;;;;24.83;6.78;;;;;;;;;;4992807;28;20038;-75
2023/08/20 03:15:29;;;;;;;17.92;6.15;;;;;;;;;;4973991;28;20044;-75
2023/08/20 03:17:55;;;;;;;24.48;7.35;;;;;;;;;;4977318;28;20037;-81
2023/08/20 03:20:21;;;;;;;20.17;7.90;;;;;;;;;;4992310;28;20045;-75
2023/08/20 03:22:47;;;;;;;23.80;8.10;;;;;;;;;;5011173;28;20037;-75
2023/08/20 03:25:13;;;;;;;26.15;7.53;;;;;;;;;;4991567;28;20091;-77
2023/08/20 03:27:40;;;;;;;25.90;8.55;;;;;;;;;;5007119;28;20080;-75
2023/08/20 03:30:07;;;;;;;21.63;7.03;;;;;;;;;;4989455;28;20073;-77
2023/08/20 03:32:33;;;;;;;30.27;7.93;;;;;;;;;;4971457;28;20030;-76
2023/08/20 03:35:00;;;;;;;21.20;8.13;;;;;;;;;;4992855;28;20046;-77
2023/08/20 03:37:26;;;;;;;20.33;7.72;;;;;;;;;;4991955;28;20033;-76
2023/08/20 03:39:53;;;;;;;19.65;7.00;;;;;;;;;;4994021;28;20031;-77
2023/08/20 03:42:20;;;;;;;26.08;8.43;;;;;;;;;;4995216;28;20059;-74
2023/08/20 03:44:47;;;;;;;27.77;7.32;;;;;;;;;;4998825;28;20069;-76
2023/08/20 03:47:15;;;;;;;21.75;6.85;;;;;;;;;;5016071;28;20030;-77
2023/08/20 03:49:41;;;;;;;24.63;7.68;;;;;;;;;;5010605;28;20088;-75
2023/08/20 03:52:07;;;;;;;22.77;6.30;;;;;;;;;;4992504;28;20462;-76
2023/08/20 03:54:34;;;;;;;23.38;6.93;;;;;;;;;;4991689;28;20483;-76
2023/08/20 03:57:00;;;;;;;24.50;6.70;;;;;;;;;;4990292;28;20048;-76
2023/08/20 03:59:26;;;;;;;20.90;6.72;;;;;;;;;;5004299;28;20056;-76
2023/08/20 04:01:52;;;;;;;25.17;8.10;;;;;;;;;;5008014;28;20030;-76
2023/08/20 04:04:18;;;;;;;22.17;6.93;;;;;;;;;;4989688;28;20038;-76
2023/08/20 04:06:45;;;;;;;26.05;7.15;;;;;;;;;;5002382;28;20032;-75
2023/08/20 04:09:11;;;;;;;28.15;8.30;;;;;;;;;;4989860;28;20065;-76
2023/08/20 04:11:37;;;;;;;17.63;6.47;;;;;;;;;;4998382;28;20037;-75
2023/08/20 04:14:03;;;;;;;17.23;6.82;;;;;;;;;;5006011;28;20117;-75
2023/08/20 04:16:30;;;;;;;24.30;7.22;;;;;;;;;;4990521;28;20113;-75
2023/08/20 04:18:57;;;;;;;20.17;8.75;;;;;;;;;;4989193;28;20113;-75
2023/08/20 04:21:23;;;;;;;23.75;7.50;;;;;;;;;;4991162;28;20026;-76
2023/08/20 04:23:49;;;;;;;24.73;7.25;;;;;;;;;;4998826;28;20097;-75
2023/08/20 04:26:15;;;;;;;26.77;7.28;;;;;;;;;;4988269;28;20133;-75
2023/08/20 04:28:42;;;;;;;21.73;7.22;;;;;;;;;;5002088;28;20097;-75
2023/08/20 04:31:08;;;;;;;25.23;8.30;;;;;;;;;;4995426;28;20034;-75
2023/08/20 04:33:57;;;;;;;24.90;8.18;;;;;;;;;;4999491;28;20045;-79
2023/08/20 04:36:33;;;;;;;21.60;7.97;;;;;;;;;;4985504;28;20503;-76
2023/08/20 04:38:59;;;;;;;26.30;7.78;;;;;;;;;;5003365;28;20133;-76
2023/08/20 04:41:26;;;;;;;19.35;7.30;;;;;;;;;;4989159;28;20065;-76
2023/08/20 04:43:52;;;;;;;19.65;7.50;;;;;;;;;;4992120;28;20034;-76
2023/08/20 04:46:20;;;;;;;22.13;7.18;;;;;;;;;;4986318;28;20093;-76
2023/08/20 04:48:48;;;;;;;18.27;7.10;;;;;;;;;;4994323;28;20038;-75
2023/08/20 04:51:14;;;;;;;19.38;7.30;;;;;;;;;;4972724;28;20031;-75
2023/08/20 04:53:40;;;;;;;22.02;8.07;;;;;;;;;;4988823;28;20570;-75
2023/08/20 04:56:08;;;;;;;28.48;8.73;;;;;;;;;;4988254;28;20046;-76
2023/08/20 04:58:35;;;;;;;22.10;7.35;;;;;;;;;;4988091;28;20050;-75
2023/08/20 05:01:02;;;;;;;23.10;7.72;;;;;;;;;;4971340;28;20506;-77
2023/08/20 05:03:30;;;;;;;18.77;8.07;;;;;;;;;;4994053;28;20014;-76
2023/08/20 05:05:56;;;;;;;26.50;9.25;;;;;;;;;;5000574;28;20526;-76
2023/08/20 05:08:22;;;;;;;28.42;8.65;;;;;;;;;;5017959;28;20067;-75
2023/08/20 05:10:50;;;;;;;25.83;8.55;;;;;;;;;;4999318;28;20018;-75
2023/08/20 05:13:17;;;;;;;18.35;8.40;;;;;;;;;;4985226;28;20033;-76
2023/08/20 05:15:44;;;;;;;19.67;8.18;;;;;;;;;;4958297;28;20111;-76
2023/08/20 05:18:11;;;;;;;25.98;8.85;;;;;;;;;;4988555;28;20475;-75
2023/08/20 05:20:37;;;;;;;23.17;8.25;;;;;;;;;;4989642;28;20105;-77
2023/08/20 05:23:05;;;;;;;22.13;7.07;;;;;;;;;;5002391;28;20129;-76
2023/08/20 05:25:33;;;;;;;15.13;5.72;;;;;;;;;;4987828;28;20032;-75
2023/08/20 05:28:01;;;;;;;18.70;5.57;;;;;;;;;;4987259;28;20022;-75
2023/08/20 05:30:27;;;;;;;21.40;5.25;;;;;;;;;;4988659;28;20162;-76
2023/08/20 05:32:57;;;;;;;12.35;4.57;;;;;;;;;;5005085;28;20037;-75
2023/08/20 05:35:23;;;;;;;16.70;3.65;;;;;;;;;;4972571;28;20038;-76
2023/08/20 05:37:50;;;;;;;15.80;4.40;;;;;;;;;;4990315;28;20029;-76
2023/08/20 05:40:16;;;;;;;15.02;3.75;;;;;;;;;;4989447;28;20033;-76
2023/08/20 05:42:43;;;;;;;10.27;3.47;;;;;;;;;;4987512;28;20042;-78
2023/08/20 05:45:10;;;;;;;10.25;3.33;;;;;;;;;;4978577;28;21569;-74
2023/08/20 05:47:36;;;;;;;9.10;3.03;;;;;;;;;;5017536;28;20038;-77
2023/08/20 05:50:03;;;;;;;12.70;3.47;;;;;;;;;;5003132;28;20066;-76
2023/08/20 05:52:29;;;;;;;12.73;2.88;;;;;;;;;;4999199;28;20622;-76
2023/08/20 05:54:55;;;;;;;9.70;3.03;;;;;;;;;;4991506;28;20096;-76
2023/08/20 05:57:22;;;;;;;11.65;3.03;;;;;;;;;;5004681;28;20107;-76
2023/08/20 05:59:48;;;;;;;12.38;3.00;;;;;;;;;;5003755;28;20056;-76
2023/08/20 06:02:18;;;;;;;16.58;3.83;;;;;;;;;;4985978;28;20416;-75
2023/08/20 06:04:44;;;;;;;10.73;3.40;;;;;;;;;;4975435;28;20022;-75
2023/08/20 06:07:10;;;;;;;10.57;2.80;;;;;;;;;;5003601;28;20421;-76
2023/08/20 06:09:36;;;;;;;9.73;3.13;;;;;;;;;;5006467;28;20547;-76
2023/08/20 06:12:03;;;;;;;8.95;2.70;;;;;;;;;;5003513;28;20041;-77
2023/08/20 06:14:29;;;;;;;11.02;2.60;;;;;;;;;;4991333;28;20072;-75
2023/08/20 06:16:56;;;;;;;10.98;3.20;;;;;;;;;;5005394;28;20037;-77
2023/08/20 06:19:22;;;;;;;13.00;3.53;;;;;;;;;;4966417;28;20038;-76
2023/08/20 06:21:49;;;;;;;13.20;2.92;;;;;;;;;;5001989;28;20030;-76
2023/08/20 06:24:15;;;;;;;11.32;2.33;;;;;;;;;;5005972;28;20479;-77
2023/08/20 06:26:44;;;;;;;10.25;2.72;;;;;;;;;;5013269;28;20032;-75
2023/08/20 06:29:10;;;;;;;13.95;2.58;;;;;;;;;;4990214;28;20030;-77
2023/08/20 06:31:39;;;;;;;11.23;3.35;;;;;;;;;;5016493;28;20764;-81
2023/08/20 06:34:05;;;;;;;13.07;3.40;;;;;;;;;;5016724;28;20034;-78
2023/08/20 06:36:31;;;;;;;12.43;2.58;;;;;;;;;;4989494;28;20054;-77
2023/08/20 06:38:58;;;;;;;14.52;3.20;;;;;;;;;;4992150;28;20140;-78
2023/08/20 06:41:24;;;;;;;14.13;2.63;;;;;;;;;;5004638;28;20535;-77
2023/08/20 06:43:50;;;;;;;10.43;2.45;;;;;;;;;;4988837;28;20337;-76
2023/08/20 06:46:16;;;;;;;13.75;3.03;;;;;;;;;;5009439;28;20018;-76
2023/08/20 06:48:43;;;;;;;12.27;2.72;;;;;;;;;;5010427;28;20030;-76
2023/08/20 06:51:12;;;;;;;9.23;2.58;;;;;;;;;;5009149;28;20105;-77
2023/08/20 06:53:38;;;;;;;12.38;2.72;;;;;;;;;;5008921;28;20172;-76
2023/08/20 06:56:04;;;;;;;14.82;2.67;;;;;;;;;;5009478;28;20033;-77
2023/08/20 06:58:30;;;;;;;11.48;2.85;;;;;;;;;;5010117;28;20038;-78
2023/08/20 07:00:56;;;;;;;13.30;2.80;;;;;;;;;;4991620;28;20038;-78
2023/08/20 07:03:22;;;;;;;13.45;2.97;;;;;;;;;;5004411;28;20526;-76
2023/08/20 07:05:49;;;;;;;12.20;3.00;;;;;;;;;;5007269;28;20040;-76
2023/08/20 07:08:15;;;;;;;17.40;3.22;;;;;;;;;;5006238;28;20006;-76
2023/08/20 07:10:41;;;;;;;14.95;3.35;;;;;;;;;;5023044;28;20042;-77
2023/08/20 07:13:07;;;;;;;13.75;3.63;;;;;;;;;;5016462;28;20026;-78
2023/08/20 07:15:33;;;;;;;16.17;3.75;;;;;;;;;;5014780;28;20021;-78
2023/08/20 07:17:59;;;;;;;16.13;4.18;;;;;;;;;;5008261;28;20026;-77
2023/08/20 07:20:26;;;;;;;15.35;4.05;;;;;;;;;;4988348;28;20125;-76
2023/08/20 07:22:53;;;;;;;15.82;3.40;;;;;;;;;;5003026;28;20034;-76
2023/08/20 07:25:19;;;;;;;15.75;3.63;;;;;;;;;;4975104;28;20069;-75
2023/08/20 07:27:45;;;;;;;15.82;4.00;;;;;;;;;;5004531;28;20503;-76
2023/08/20 07:30:12;;;;;;;18.58;3.90;;;;;;;;;;4986838;28;20422;-75
2023/08/20 07:32:38;;;;;;;20.25;4.32;;;;;;;;;;5006799;28;20034;-75
2023/08/20 07:35:04;;;;;;;15.82;4.00;;;;;;;;;;5010500;28;20105;-76
2023/08/20 07:37:30;;;;;;;17.50;4.00;;;;;;;;;;5009380;28;20501;-75
2023/08/20 07:39:57;;;;;;;14.20;4.22;;;;;;;;;;5009578;28;20037;-74
2023/08/20 07:42:23;;;;;;;20.83;3.70;;;;;;;;;;5007539;28;20042;-74
2023/08/20 07:44:49;;;;;;;21.95;3.92;;;;;;;;;;4988853;28;20033;-75
2023/08/20 07:47:16;;;;;;;21.00;3.60;;;;;;;;;;4990772;28;20040;-77
2023/08/20 07:49:42;;;;;;;16.10;3.72;;;;;;;;;;4997274;28;20084;-78
2023/08/20 07:52:10;;;;;;;20.17;4.15;;;;;;;;;;5000040;28;20018;-77
2023/08/20 07:54:36;;;;;;;16.02;4.10;;;;;;;;;;5026392;28;20092;-75
2023/08/20 07:57:02;;;;;;;17.00;4.53;;;;;;;;;;5018611;28;20033;-76
2023/08/20 07:59:29;;;;;;;20.67;4.45;;;;;;;;;;5014604;28;20034;-75
2023/08/20 08:01:55;;;;;;;12.90;3.97;;;;;;;;;;4979830;28;20041;-77
2023/08/20 08:04:21;;;;;;;19.73;3.72;;;;;;;;;;5012879;28;20407;-76
2023/08/20 08:06:47;;;;;;;13.80;3.35;;;;;;;;;;5009495;28;20056;-75
2023/08/20 08:09:21;;;;;;;12.02;3.50;;;;;;;;;;5010424;28;20038;-76
2023/08/20 08:11:47;;;;;;;15.20;4.47;;;;;;;;;;4991723;28;20027;-74
2023/08/20 08:14:13;;;;;;;12.52;3.15;;;;;;;;;;4993884;28;20101;-76
2023/08/20 08:16:39;;;;;;;16.05;3.25;;;;;;;;;;5003945;28;20081;-77
2023/08/20 08:19:06;;;;;;;13.90;3.20;;;;;;;;;;4994748;28;20049;-77
2023/08/20 08:21:32;;;;;;;12.85;3.33;;;;;;;;;;5009908;28;20038;-77
2023/08/20 08:23:58;;;;;;;9.93;2.65;;;;;;;;;;5000225;28;20083;-75
2023/08/20 08:26:24;;;;;;;10.98;2.13;;;;;;;;;;4981196;28;20037;-75
2023/08/20 08:28:50;;;;;;;12.68;2.35;;;;;;;;;;4996345;28;20034;-74
2023/08/20 08:31:16;;;;;;;9.48;2.47;;;;;;;;;;5009710;28;20102;-77
2023/08/20 08:33:42;;;;;;;8.63;2.42;;;;;;;;;;5003178;28;20030;-75
2023/08/20 08:36:09;;;;;;;8.10;2.00;;;;;;;;;;4986963;28;20058;-77
2023/08/20 08:38:38;;;;;;;13.30;2.50;;;;;;;;;;5015954;28;20045;-77
2023/08/20 08:41:08;;;;;;;7.60;1.77;;;;;;;;;;5015300;28;20022;-76
2023/08/20 08:43:34;;;;;;;;;;;;;;;;;;5011308;28;20037;-76
2023/08/20 08:46:01;;;;;;;14.30;2.28;;;;;;;;;;5001646;28;19918;-77
2023/08/20 08:48:28;;;;;;;13.52;2.50;;;;;;;;;;5003763;28;20104;-77
2023/08/20 08:50:55;;;;;;;8.50;1.77;;;;;;;;;;5012439;28;20476;-77
2023/08/20 08:53:25;;;;;;;7.50;1.85;;;;;;;;;;5011870;28;20036;-77
2023/08/20 08:55:52;;;;;;;6.15;1.75;;;;;;;;;;5011502;28;20061;-77
2023/08/20 08:58:18;;;;;;;9.27;2.35;;;;;;;;;;5011462;28;20080;-77
2023/08/20 09:00:45;;;;;;;9.05;1.75;;;;;;;;;;5011440;28;20034;-78
2023/08/20 09:03:11;;;;;;;7.40;2.03;;;;;;;;;;4994266;28;20076;-76
2023/08/20 09:05:50;;;;;;;8.60;2.10;;;;;;;;;;4993870;28;20061;-76
2023/08/20 09:08:23;;;;;;;8.38;1.52;;;;;;;;;;5011100;28;20038;-77
2023/08/20 09:10:53;;;;;;;8.40;1.65;;;;;;;;;;5006393;28;20479;-77
2023/08/20 09:13:39;;;;;;;8.98;1.77;;;;;;;;;;5001247;28;20030;-77
2023/08/20 09:16:06;;;;;;;9.65;2.42;;;;;;;;;;5020274;28;20570;-78
2023/08/20 09:18:40;;;;;;;8.93;1.75;;;;;;;;;;5017564;28;20133;-76
2023/08/20 09:21:08;;;;;;;8.40;1.65;;;;;;;;;;4994543;28;20038;-77
2023/08/20 09:23:35;;;;;;;7.18;1.90;;;;;;;;;;4976530;28;20116;-76
2023/08/20 09:26:05;;;;;;;6.68;1.50;;;;;;;;;;4971357;28;20041;-75
2023/08/20 09:28:41;;;;;;;6.00;1.73;;;;;;;;;;4998626;28;20060;-75
2023/08/20 09:31:07;;;;;;;9.82;1.85;;;;;;;;;;5011308;28;20101;-77
2023/08/20 09:33:33;;;;;;;6.25;1.48;;;;;;;;;;4993477;28;20045;-76
2023/08/20 09:35:59;;;;;;;11.75;2.30;;;;;;;;;;5002163;28;20062;-77
2023/08/20 09:38:26;;;;;;;10.13;2.60;;;;;;;;;;5000676;28;20507;-77
2023/08/20 09:40:56;;;;;;;8.35;1.88;;;;;;;;;;5006465;28;20026;-76
2023/08/20 09:43:26;;;;;;;11.10;2.33;;;;;;;;;;5011264;28;20466;-75
2023/08/20 09:45:55;;;;;;;7.90;1.92;;;;;;;;;;5011018;28;20096;-77
2023/08/20 09:48:21;;;;;;;10.50;1.90;;;;;;;;;;4993849;28;20103;-76
2023/08/20 09:50:48;;;;;;;7.93;1.80;;;;;;;;;;5014617;28;20045;-77
2023/08/20 09:53:28;;;;;;;11.18;2.38;;;;;;;;;;5001888;28;20030;-77
2023/08/20 09:55:56;;;;;;;8.82;2.10;;;;;;;;;;5002424;28;20030;-75
2023/08/20 09:58:25;;;;;;;8.10;1.90;;;;;;;;;;5020042;28;20013;-78
2023/08/20 10:00:52;;;;;;;5.38;1.33;;;;;;;;;;5012834;28;20022;-78
2023/08/20 10:03:19;;;;;;;9.98;2.13;;;;;;;;;;5004376;28;20022;-75
2023/08/20 10:05:47;;;;;;;9.30;2.08;;;;;;;;;;5010547;28;20034;-77
2023/08/20 10:08:15;;;;;;;5.65;1.50;;;;;;;;;;5010381;28;20479;-77
2023/08/20 10:10:41;;;;;;;8.70;2.08;;;;;;;;;;5011546;28;20034;-76
2023/08/20 10:13:08;;;;;;;8.57;2.05;;;;;;;;;;5009205;28;20032;-77
2023/08/20 10:15:36;;;;;;;9.55;1.50;;;;;;;;;;5011212;28;20045;-77
2023/08/20 10:18:02;;;;;;;10.90;2.25;;;;;;;;;;4977648;28;20037;-80
2023/08/20 10:20:30;;;;;;;8.73;1.98;;;;;;;;;;4993135;28;20038;-77
2023/08/20 10:23:00;;;;;;;7.72;1.70;;;;;;;;;;5008166;28;20038;-77
2023/08/20 10:25:27;;;;;;;7.60;1.70;;;;;;;;;;5011471;28;20052;-78
2023/08/20 10:27:54;;;;;;;7.22;2.05;;;;;;;;;;5011342;28;20132;-75
2023/08/20 10:30:25;;;;;;;6.47;1.60;;;;;;;;;;5015463;28;20061;-78
2023/08/20 10:32:58;;;;;;;5.80;1.60;;;;;;;;;;5017555;28;20456;-77
2023/08/20 10:35:24;;;;;;;7.30;1.60;;;;;;;;;;5020661;28;20041;-77
2023/08/20 10:38:05;;;;;;;7.40;1.65;;;;;;;;;;5018644;28;20429;-77
2023/08/20 10:40:48;;;;;;;6.57;1.58;;;;;;;;;;5012447;28;20041;-77
2023/08/20 10:43:26;;;;;;;7.45;1.60;;;;;;;;;;4999697;28;20088;-77
2023/08/20 10:46:11;;;;;;;8.50;1.50;;;;;;;;;;5006659;28;20029;-77
2023/08/20 10:48:39;;;;;;;8.75;1.70;;;;;;;;;;4992539;28;20037;-77
2023/08/20 10:51:09;;;;;;;7.43;2.13;;;;;;;;;;4972633;28;20564;-78
2023/08/20 10:53:36;;;;;;;5.63;1.20;;;;;;;;;;5007330;28;20045;-76
2023/08/20 10:56:12;;;;;;;6.50;1.25;;;;;;;;;;5008057;28;20614;-76
2023/08/20 10:58:43;;;;;;;14.23;1.70;;;;;;;;;;5008692;28;20502;-76
2023/08/20 11:01:21;;;;;;;8.82;1.52;;;;;;;;;;5009348;28;20026;-75
2023/08/20 11:03:48;;;;;;;7.20;1.63;;;;;;;;;;5008615;28;20030;-77
2023/08/20 11:06:14;;;;;;;8.10;1.40;;;;;;;;;;5010727;28;20041;-77
2023/08/20 11:08:42;;;;;;;5.57;1.35;;;;;;;;;;5010343;28;20026;-79
2023/08/20 11:11:08;;;;;;;5.32;1.75;;;;;;;;;;4999417;28;20029;-76
2023/08/20 11:13:35;;;;;;;7.55;2.00;;;;;;;;;;5014150;28;20052;-76
2023/08/20 11:16:05;;;;;;;7.18;1.85;;;;;;;;;;5011151;28;20056;-75
2023/08/20 11:18:33;;;;;;;6.07;1.70;;;;;;;;;;5011820;28;20129;-76
2023/08/20 11:20:59;;;;;;;6.90;1.38;;;;;;;;;;5011444;28;20113;-76
2023/08/20 11:23:26;;;;;;;8.60;2.33;;;;;;;;;;4993985;28;20692;-76
2023/08/20 11:25:52;;;;;;;9.10;2.00;;;;;;;;;;4993212;28;20073;-75
2023/08/20 11:28:18;;;;;;;8.35;1.25;;;;;;;;;;4992525;28;20022;-75
2023/08/20 11:30:45;;;;;;;8.68;1.98;;;;;;;;;;4993711;28;20033;-75
2023/08/20 11:33:11;;;;;;;7.75;1.70;;;;;;;;;;5008691;28;20034;-74
2023/08/20 11:35:37;;;;;;;9.32;1.58;;;;;;;;;;4989433;28;20036;-75
2023/08/20 11:38:04;;;;;;;7.40;1.80;;;;;;;;;;5012073;28;20037;-75
2023/08/20 11:40:30;;;;;;;6.20;1.55;;;;;;;;;;5011144;28;20141;-77
2023/08/20 11:42:56;;;;;;;9.20;1.73;;;;;;;;;;4991563;28;20053;-77
2023/08/20 11:45:22;;;;;;;5.68;1.65;;;;;;;;;;5014410;28;20033;-76
2023/08/20 11:47:49;;;;;;;10.48;1.70;;;;;;;;;;5016470;28;20052;-76
2023/08/20 11:50:15;;;;;;;4.50;1.42;;;;;;;;;;5017444;28;20046;-75
2023/08/20 11:52:41;;;;;;;8.20;2.10;;;;;;;;;;4994802;28;20075;-76
2023/08/20 11:55:09;;;;;;;7.78;1.25;;;;;;;;;;5011034;28;20064;-75
2023/08/20 11:57:35;;;;;;;7.22;1.60;;;;;;;;;;5010177;28;20045;-76
2023/08/20 12:00:09;;;;;;;8.48;2.17;;;;;;;;;;5005241;28;20084;-76
2023/08/20 12:02:42;;;;;;;7.57;1.83;;;;;;;;;;5013825;28;20034;-76
2023/08/20 12:05:09;;;;;;;6.47;1.90;;;;;;;;;;5011054;28;20041;-76
2023/08/20 12:07:36;;;;;;;7.05;1.67;;;;;;;;;;5014010;28;20030;-76
2023/08/20 12:10:23;;;;;;;10.23;2.42;;;;;;;;;;5012488;28;20056;-75
2023/08/20 12:12:49;;;;;;;7.43;1.60;;;;;;;;;;4999454;28;20033;-75
2023/08/20 12:15:15;;;;;;;7.28;1.65;;;;;;;;;;5012109;28;20103;-76
2023/08/20 12:17:41;;;;;;;6.70;1.30;;;;;;;;;;5012295;28;20508;-76
2023/08/20 12:20:14;;;;;;;8.85;1.42;;;;;;;;;;5013757;28;20065;-76
2023/08/20 12:22:42;;;;;;;7.60;1.52;;;;;;;;;;5019425;28;20026;-75
2023/08/20 12:25:08;;;;;;;7.22;1.55;;;;;;;;;;5022687;28;20041;-77
2023/08/20 12:27:34;;;;;;;6.20;1.48;;;;;;;;;;5016236;28;20033;-80
2023/08/20 12:30:01;;;;;;;8.52;1.70;;;;;;;;;;4992996;28;20470;-79
2023/08/20 12:32:27;;;;;;;7.93;1.58;;;;;;;;;;5009621;28;20042;-79
2023/08/20 12:34:53;;;;;;;5.68;1.23;;;;;;;;;;5008985;28;20038;-78
2023/08/20 12:37:19;;;;;;;9.57;1.33;;;;;;;;;;5011721;28;20068;-78
2023/08/20 12:39:45;;;;;;;6.72;1.42;;;;;;;;;;5012585;28;20533;-79
2023/08/20 12:42:11;;;;;;;6.60;1.60;;;;;;;;;;5025133;28;20073;-77
2023/08/20 12:44:38;;;;;;;5.43;1.30;;;;;;;;;;5027116;28;20124;-77
2023/08/20 12:47:04;;;;;;;4.53;1.42;;;;;;;;;;5010938;28;20056;-77
2023/08/20 12:49:30;;;;;;;8.25;1.40;;;;;;;;;;5010538;28;20160;-77
2023/08/20 12:51:56;;;;;;;8.85;1.77;;;;;;;;;;5004481;28;20045;-77
2023/08/20 12:54:23;;;;;;;7.72;1.40;;;;;;;;;;5010780;28;20056;-76
2023/08/20 12:56:49;;;;;;;6.57;1.48;;;;;;;;;;5001646;28;20085;-80
2023/08/20 12:59:15;;;;;;;9.15;1.45;;;;;;;;;;4996768;28;20105;-81
2023/08/20 13:01:42;;;;;;;6.45;1.60;;;;;;;;;;5018047;28;20137;-77
2023/08/20 13:04:08;;;;;;;5.60;1.35;;;;;;;;;;5009545;28;20030;-78
2023/08/20 13:06:35;;;;;;;6.10;1.65;;;;;;;;;;5009635;28;20045;-76
2023/08/20 13:09:02;;;;;;;5.93;1.20;;;;;;;;;;5008728;28;20095;-81
2023/08/20 13:11:30;;;;;;;6.70;1.60;;;;;;;;;;5009691;28;20042;-76
2023/08/20 13:13:58;;;;;;;8.77;1.58;;;;;;;;;;5003984;28;20041;-77
2023/08/20 13:16:24;;;;;;;7.68;1.30;;;;;;;;;;5011835;28;20064;-78
2023/08/20 13:18:50;;;;;;;8.02;1.50;;;;;;;;;;5011789;28;20387;-77
2023/08/20 13:21:17;;;;;;;6.70;1.40;;;;;;;;;;4987194;28;20034;-77
2023/08/20 13:23:44;;;;;;;8.40;1.48;;;;;;;;;;4991949;28;20040;-77
2023/08/20 13:26:10;;;;;;;5.25;1.25;;;;;;;;;;5014512;28;20153;-76
2023/08/20 13:28:38;;;;;;;5.15;1.10;;;;;;;;;;5012038;28;20033;-77
2023/08/20 13:31:04;;;;;;;7.32;1.80;;;;;;;;;;5013373;28;20037;-76
2023/08/20 13:33:30;;;;;;;5.63;1.52;;;;;;;;;;4998112;28;20514;-76
2023/08/20 13:35:57;;;;;;;9.02;1.80;;;;;;;;;;5018233;28;20038;-76
2023/08/20 13:38:25;;;;;;;5.68;1.58;;;;;;;;;;5014128;28;20484;-74
2023/08/20 13:40:51;;;;;;;7.53;1.50;;;;;;;;;;4993510;28;20056;-76
2023/08/20 13:43:17;;;;;;;8.73;1.90;;;;;;;;;;5010073;28;20097;-78
2023/08/20 13:45:43;;;;;;;6.30;1.50;;;;;;;;;;5004964;28;20061;-77
2023/08/20 13:48:09;;;;;;;6.80;1.52;;;;;;;;;;5009347;28;20069;-76
2023/08/20 13:50:35;;;;;;;11.60;2.10;;;;;;;;;;4995480;28;20034;-76
2023/08/20 13:53:02;;;;;;;5.95;1.70;;;;;;;;;;4991129;28;20029;-77
2023/08/20 13:55:31;;;;;;;8.13;1.77;;;;;;;;;;5010685;28;20045;-77
2023/08/20 13:57:59;;;;;;;4.32;1.27;;;;;;;;;;5008680;28;20105;-75
2023/08/20 14:00:25;;;;;;;9.02;1.70;;;;;;;;;;4997663;28;20692;-76
2023/08/20 14:02:51;;;;;;;8.95;1.67;;;;;;;;;;5006917;28;20091;-78
2023/08/20 14:05:19;;;;;;;8.90;1.88;;;;;;;;;;5012622;28;20113;-77
2023/08/20 14:07:45;;;;;;;5.70;1.67;;;;;;;;;;4996693;28;20074;-75
2023/08/20 14:10:11;;;;;;;7.13;1.60;;;;;;;;;;5015505;28;20037;-75
2023/08/20 14:12:37;;;;;;;7.38;1.45;;;;;;;;;;5007245;28;20038;-74
2023/08/20 14:15:04;;;;;;;6.82;1.80;;;;;;;;;;5005197;28;20491;-77
2023/08/20 14:17:30;;;;;;;5.05;1.70;;;;;;;;;;5008788;28;20038;-75
2023/08/20 14:19:56;;;;;;;7.10;1.50;;;;;;;;;;5009069;28;20048;-76
2023/08/20 14:22:22;;;;;;;8.65;1.70;;;;;;;;;;4991912;28;20041;-76
2023/08/20 14:24:50;;;;;;;6.50;1.38;;;;;;;;;;4993143;28;20044;-74
2023/08/20 14:27:16;;;;;;;8.48;1.70;;;;;;;;;;5007639;28;20157;-77
2023/08/20 14:29:42;;;;;;;6.65;1.50;;;;;;;;;;4990729;28;20113;-75
2023/08/20 14:32:08;;;;;;;7.93;1.80;;;;;;;;;;5002901;28;20042;-77
2023/08/20 14:34:35;;;;;;;7.85;1.67;;;;;;;;;;4981509;28;20092;-74
2023/08/20 14:37:01;;;;;;;10.25;2.03;;;;;;;;;;5007297;28;20419;-75